Time;durP1;ratioP1;P1;durP2;ratioP2;P2;SDS_P1;SDS_P2;PMS_P1;PMS_P2;Temp;Humidity;BMP_temperature;BMP_pressure;BME280_temperature;BME280_humidity;BME280_pressure;Samples;Min_cycle;Max_cycle;Signal;HPM_P1;HPM_P2
2021/11/30 00:00:48;;;;;;;0.00;0.00;;;6.20;77.00;;;;;;4974961;28;20030;-72
2021/11/30 00:03:14;;;;;;;0.00;0.00;;;6.20;77.70;;;;;;4976622;28;20109;-73
2021/11/30 00:05:39;;;;;;;0.00;0.00;;;6.20;77.00;;;;;;4976354;28;20081;-72
2021/11/30 00:08:05;;;;;;;0.00;0.00;;;6.20;76.30;;;;;;4976450;28;20034;-72
2021/11/30 00:10:46;;;;;;;0.00;0.00;;;6.20;75.70;;;;;;4976144;28;20027;-71
2021/11/30 00:13:21;;;;;;;0.00;0.00;;;6.20;76.10;;;;;;4976402;28;20054;-72
2021/11/30 00:15:49;;;;;;;0.00;0.00;;;6.20;75.10;;;;;;4975456;28;20069;-72
2021/11/30 00:18:15;;;;;;;0.00;0.00;;;6.20;75.50;;;;;;4976307;28;20110;-72
2021/11/30 00:20:43;;;;;;;0.00;0.00;;;6.10;74.50;;;;;;4976098;28;20109;-72
2021/11/30 00:23:10;;;;;;;0.00;0.00;;;6.10;74.20;;;;;;4976319;28;20118;-72
2021/11/30 00:25:36;;;;;;;0.00;0.00;;;6.00;73.90;;;;;;4976477;28;20034;-71
2021/11/30 00:28:03;;;;;;;0.00;0.00;;;6.00;74.40;;;;;;4976039;28;20491;-71
2021/11/30 00:30:31;;;;;;;0.00;0.00;;;6.00;75.20;;;;;;4976412;28;20035;-72
2021/11/30 00:32:58;;;;;;;0.00;0.00;;;6.00;74.40;;;;;;4976078;28;20042;-71
2021/11/30 00:35:24;;;;;;;0.00;0.00;;;6.00;74.40;;;;;;4976160;28;20030;-72
2021/11/30 00:37:50;;;;;;;0.00;0.00;;;6.00;74.80;;;;;;4975697;28;20031;-71
2021/11/30 00:40:17;;;;;;;0.00;0.00;;;6.00;75.30;;;;;;4975673;28;20030;-72
2021/11/30 00:42:43;;;;;;;0.00;0.00;;;6.00;74.30;;;;;;4975512;28;20026;-72
2021/11/30 00:45:14;;;;;;;0.00;0.00;;;6.00;74.30;;;;;;4974266;28;20125;-73
2021/11/30 00:47:47;;;;;;;0.00;0.00;;;6.00;74.50;;;;;;4974547;28;20370;-71
2021/11/30 00:50:14;;;;;;;0.00;0.00;;;6.00;74.60;;;;;;4975770;28;20058;-72
2021/11/30 00:52:39;;;;;;;0.00;0.00;;;6.00;74.80;;;;;;4974532;28;20030;-71
2021/11/30 00:55:06;;;;;;;0.00;0.00;;;6.00;75.20;;;;;;4975724;28;20130;-72
2021/11/30 00:57:32;;;;;;;0.00;0.00;;;6.00;73.90;;;;;;4975750;28;20027;-72
2021/11/30 00:59:57;;;;;;;0.00;0.00;;;6.10;73.60;;;;;;4975634;28;20031;-74
2021/11/30 01:02:23;;;;;;;0.00;0.00;;;6.10;73.90;;;;;;4975577;28;20045;-71
2021/11/30 01:04:49;;;;;;;0.00;0.00;;;6.10;73.80;;;;;;4974667;28;20089;-72
2021/11/30 01:07:15;;;;;;;0.00;0.00;;;6.00;73.50;;;;;;4975398;28;20031;-72
2021/11/30 01:09:42;;;;;;;0.00;0.00;;;6.00;73.00;;;;;;4974315;28;20380;-73
2021/11/30 01:12:09;;;;;;;0.00;0.00;;;6.00;72.90;;;;;;4975312;28;20023;-73
2021/11/30 01:14:36;;;;;;;0.00;0.00;;;6.00;71.70;;;;;;4974189;28;20086;-71
2021/11/30 01:17:02;;;;;;;0.00;0.00;;;6.00;71.60;;;;;;4975208;28;20085;-71
2021/11/30 01:19:28;;;;;;;0.00;0.00;;;6.00;70.70;;;;;;4974085;28;20031;-71
2021/11/30 01:21:54;;;;;;;0.00;0.00;;;6.00;70.80;;;;;;4974574;28;20369;-72
2021/11/30 01:24:20;;;;;;;0.00;0.00;;;6.00;71.30;;;;;;4975178;28;20358;-71
2021/11/30 01:26:45;;;;;;;0.00;0.00;;;6.00;71.20;;;;;;4974897;28;20084;-72
2021/11/30 01:29:11;;;;;;;0.00;0.00;;;6.10;71.20;;;;;;4975143;28;20053;-72
2021/11/30 01:31:38;;;;;;;0.00;0.00;;;6.10;71.00;;;;;;4975264;28;20034;-72
2021/11/30 01:34:04;;;;;;;0.00;0.00;;;6.10;69.90;;;;;;4975035;28;20030;-71
2021/11/30 01:36:30;;;;;;;0.00;0.00;;;6.10;69.60;;;;;;4975092;28;20034;-72
2021/11/30 01:38:56;;;;;;;0.00;0.00;;;6.10;69.50;;;;;;4974727;28;20035;-72
2021/11/30 01:41:22;;;;;;;0.00;0.00;;;6.10;69.70;;;;;;4974910;28;20456;-72
2021/11/30 01:43:50;;;;;;;0.00;0.00;;;6.10;68.50;;;;;;4974675;28;20023;-74
2021/11/30 01:51:27;;;;;;;0.00;0.00;;;6.20;67.80;;;;;;4974641;28;20045;-72
2021/11/30 01:53:55;;;;;;;0.00;0.00;;;6.20;67.30;;;;;;4974940;28;20054;-72
2021/11/30 01:56:21;;;;;;;0.00;0.00;;;6.20;67.50;;;;;;4974637;28;20050;-72
2021/11/30 01:58:48;;;;;;;0.00;0.00;;;6.20;67.00;;;;;;4973476;28;20038;-72
2021/11/30 02:01:15;;;;;;;0.00;0.00;;;6.20;67.00;;;;;;4973512;28;20022;-72
2021/11/30 02:03:41;;;;;;;0.00;0.00;;;6.20;66.50;;;;;;4974713;28;20424;-72
2021/11/30 02:06:07;;;;;;;0.00;0.00;;;6.20;66.70;;;;;;4974583;28;20039;-72
2021/11/30 02:08:33;;;;;;;0.00;0.00;;;6.20;66.00;;;;;;4973947;28;20126;-72
2021/11/30 02:10:59;;;;;;;0.00;0.00;;;6.20;66.40;;;;;;4974577;28;20098;-72
2021/11/30 02:13:25;;;;;;;0.00;0.00;;;6.20;67.00;;;;;;4974608;28;20027;-72
2021/11/30 02:15:54;;;;;;;0.00;0.00;;;6.20;67.10;;;;;;4974901;28;20038;-72
2021/11/30 02:18:23;;;;;;;0.00;0.00;;;6.20;65.90;;;;;;4974445;28;20069;-73
2021/11/30 02:21:01;;;;;;;0.00;0.00;;;6.30;66.10;;;;;;4974498;28;20019;-71
2021/11/30 02:25:57;;;;;;;0.00;0.00;;;6.30;64.70;;;;;;4974545;28;20092;-72
2021/11/30 02:28:23;;;;;;;0.00;0.00;;;6.30;64.40;;;;;;4974158;28;20073;-71
2021/11/30 02:30:48;;;;;;;0.00;0.00;;;6.30;64.40;;;;;;4975349;28;20462;-72
2021/11/30 02:33:14;;;;;;;0.00;0.00;;;6.30;65.00;;;;;;4957693;28;20030;-72
2021/11/30 02:35:40;;;;;;;0.00;0.00;;;6.30;65.10;;;;;;4973922;28;20392;-72
2021/11/30 02:38:08;;;;;;;0.00;0.00;;;6.30;64.70;;;;;;4974444;28;20038;-72
2021/11/30 02:40:35;;;;;;;0.00;0.00;;;6.30;64.10;;;;;;4974464;28;20031;-72
2021/11/30 02:43:01;;;;;;;0.00;0.00;;;6.30;64.50;;;;;;4974394;28;20405;-72
2021/11/30 02:45:27;;;;;;;0.00;0.00;;;6.30;64.70;;;;;;4972695;28;20031;-72
2021/11/30 02:47:53;;;;;;;0.00;0.00;;;6.30;64.00;;;;;;4974312;28;20407;-71
2021/11/30 02:50:19;;;;;;;0.00;0.00;;;6.30;63.70;;;;;;4973196;28;20027;-72
2021/11/30 02:52:44;;;;;;;0.00;0.00;;;6.30;64.10;;;;;;4974533;28;20031;-72
2021/11/30 02:55:10;;;;;;;0.10;0.00;;;6.30;63.80;;;;;;4974103;28;20075;-73
2021/11/30 02:57:36;;;;;;;0.00;0.00;;;6.30;63.80;;;;;;4974093;28;20054;-72
2021/11/30 03:00:06;;;;;;;0.00;0.00;;;6.30;64.30;;;;;;4974290;28;20027;-72
2021/11/30 03:02:32;;;;;;;0.00;0.00;;;6.30;64.00;;;;;;4974192;28;20115;-72
2021/11/30 03:05:01;;;;;;;0.00;0.00;;;6.40;64.10;;;;;;4974444;28;20039;-71
2021/11/30 03:07:38;;;;;;;0.00;0.00;;;6.30;64.10;;;;;;4974178;28;20038;-72
2021/11/30 03:10:13;;;;;;;0.00;0.00;;;6.40;64.70;;;;;;4974299;28;20039;-73
2021/11/30 03:12:39;;;;;;;0.00;0.00;;;6.40;65.10;;;;;;4973905;28;20034;-72
2021/11/30 03:15:13;;;;;;;0.00;0.00;;;6.40;64.50;;;;;;4972962;28;20026;-72
2021/11/30 03:17:38;;;;;;;0.00;0.00;;;6.40;64.60;;;;;;4974447;28;20421;-72
2021/11/30 03:20:06;;;;;;;0.00;0.00;;;6.40;64.20;;;;;;4974221;28;20054;-72
2021/11/30 03:22:32;;;;;;;0.00;0.00;;;6.40;64.40;;;;;;4976782;28;20109;-71
2021/11/30 03:24:58;;;;;;;0.00;0.00;;;6.40;64.10;;;;;;4977261;28;20035;-71
2021/11/30 03:27:24;;;;;;;0.00;0.00;;;6.40;64.30;;;;;;4977217;28;20432;-72
2021/11/30 03:29:50;;;;;;;0.00;0.00;;;6.40;64.70;;;;;;4977387;28;20035;-71
2021/11/30 03:35:05;;;;;;;0.00;0.00;;;6.40;64.90;;;;;;4977293;28;20420;-71
2021/11/30 03:37:31;;;;;;;0.00;0.00;;;6.40;64.90;;;;;;4977332;28;20385;-73
2021/11/30 03:39:57;;;;;;;0.00;0.00;;;6.40;65.00;;;;;;4976928;28;20034;-72
2021/11/30 03:42:24;;;;;;;0.00;0.00;;;6.40;65.00;;;;;;4975860;28;20034;-72
2021/11/30 03:44:50;;;;;;;0.00;0.00;;;6.40;64.60;;;;;;4977059;28;20372;-72
2021/11/30 03:47:16;;;;;;;0.00;0.00;;;6.50;64.60;;;;;;4976969;28;20026;-72
2021/11/30 03:49:41;;;;;;;0.00;0.00;;;6.40;64.50;;;;;;4976917;28;20027;-73
2021/11/30 03:52:07;;;;;;;0.00;0.00;;;6.40;64.70;;;;;;4976958;28;20388;-72
2021/11/30 03:54:33;;;;;;;0.00;0.00;;;6.50;64.60;;;;;;4975279;28;20134;-72
2021/11/30 03:57:00;;;;;;;0.00;0.00;;;6.40;64.10;;;;;;4975951;28;20065;-72
2021/11/30 03:59:25;;;;;;;0.00;0.00;;;6.40;64.10;;;;;;4976771;28;20033;-72
2021/11/30 04:01:51;;;;;;;0.00;0.00;;;6.40;63.90;;;;;;4976719;28;20027;-72
2021/11/30 04:04:20;;;;;;;0.00;0.00;;;6.40;63.50;;;;;;4976793;28;20030;-71
2021/11/30 04:06:48;;;;;;;0.00;0.00;;;6.40;63.30;;;;;;4976763;28;20031;-71
2021/11/30 04:09:13;;;;;;;0.00;0.00;;;6.40;63.70;;;;;;4973683;28;20389;-73
2021/11/30 04:11:40;;;;;;;0.00;0.00;;;6.40;63.50;;;;;;4976972;28;20058;-72
2021/11/30 04:14:07;;;;;;;0.00;0.00;;;6.40;63.60;;;;;;4976570;28;20027;-72
2021/11/30 04:16:33;;;;;;;0.00;0.00;;;6.40;63.80;;;;;;4976472;28;20041;-72
2021/11/30 04:18:59;;;;;;;0.00;0.00;;;6.40;63.50;;;;;;4976187;28;20019;-72
2021/11/30 04:21:25;;;;;;;0.00;0.00;;;6.40;63.50;;;;;;4976605;28;20389;-72
2021/11/30 04:23:53;;;;;;;0.00;0.00;;;6.40;63.70;;;;;;4976622;28;20362;-72
2021/11/30 04:26:19;;;;;;;0.00;0.00;;;6.40;63.50;;;;;;4976185;28;20053;-73
2021/11/30 04:28:45;;;;;;;0.00;0.00;;;6.40;63.50;;;;;;4976325;28;20511;-72
2021/11/30 04:31:12;;;;;;;0.00;0.00;;;6.30;63.20;;;;;;4975985;28;20097;-71
2021/11/30 04:33:38;;;;;;;0.00;0.00;;;6.30;63.30;;;;;;4974916;28;20465;-73
2021/11/30 04:36:07;;;;;;;0.00;0.00;;;6.30;63.30;;;;;;4974987;28;20078;-72
2021/11/30 04:38:35;;;;;;;0.00;0.00;;;6.40;63.50;;;;;;4974911;28;20023;-72
2021/11/30 04:41:02;;;;;;;0.00;0.00;;;6.30;63.70;;;;;;4976041;28;20125;-72
2021/11/30 04:43:37;;;;;;;0.00;0.00;;;6.40;64.00;;;;;;4976193;28;20039;-72
2021/11/30 04:46:22;;;;;;;0.00;0.00;;;6.40;63.20;;;;;;4975740;28;20121;-73
2021/11/30 04:48:59;;;;;;;0.00;0.00;;;6.30;62.50;;;;;;4975982;28;20038;-72
2021/11/30 04:51:28;;;;;;;0.00;0.00;;;6.30;62.50;;;;;;4975947;28;20027;-72
2021/11/30 04:53:54;;;;;;;0.00;0.00;;;6.20;62.80;;;;;;4975747;28;20026;-72
2021/11/30 04:56:20;;;;;;;0.00;0.00;;;6.20;62.50;;;;;;4974297;28;20061;-73
2021/11/30 04:58:46;;;;;;;0.00;0.00;;;6.20;62.80;;;;;;4975853;28;20082;-75
2021/11/30 05:01:12;;;;;;;0.00;0.00;;;6.20;63.10;;;;;;4974541;28;20030;-74
2021/11/30 05:03:38;;;;;;;0.00;0.00;;;6.20;63.00;;;;;;4975348;28;20527;-73
2021/11/30 05:06:05;;;;;;;0.00;0.00;;;6.10;63.20;;;;;;4975912;28;20114;-73
2021/11/30 05:08:31;;;;;;;0.00;0.00;;;6.10;63.30;;;;;;4974300;28;20426;-73
2021/11/30 05:10:57;;;;;;;0.00;0.00;;;6.10;63.20;;;;;;4975313;28;20030;-72
2021/11/30 05:13:22;;;;;;;0.00;0.00;;;6.00;63.30;;;;;;4975627;28;20075;-72
2021/11/30 05:15:48;;;;;;;0.00;0.00;;;6.00;63.00;;;;;;4975405;28;20035;-73
2021/11/30 05:18:14;;;;;;;0.00;0.00;;;6.00;62.90;;;;;;4975666;28;20385;-72
2021/11/30 05:20:40;;;;;;;0.00;0.00;;;6.00;62.40;;;;;;4975024;28;20035;-73
2021/11/30 05:23:06;;;;;;;0.00;0.00;;;6.00;62.40;;;;;;4975331;28;20428;-74
2021/11/30 05:25:35;;;;;;;0.00;0.00;;;5.90;62.90;;;;;;4975063;28;20026;-72
2021/11/30 05:28:03;;;;;;;0.00;0.00;;;5.90;62.90;;;;;;4975184;28;20031;-73
2021/11/30 05:30:35;;;;;;;0.00;0.00;;;5.80;62.50;;;;;;4975266;28;20031;-73
2021/11/30 05:33:03;;;;;;;0.00;0.00;;;5.80;62.70;;;;;;4973665;28;20034;-72
2021/11/30 05:35:28;;;;;;;0.00;0.00;;;5.80;63.00;;;;;;4975113;28;20018;-75
2021/11/30 05:37:54;;;;;;;0.00;0.00;;;5.80;63.20;;;;;;4967179;28;20034;-73
2021/11/30 05:40:20;;;;;;;0.00;0.00;;;5.90;63.30;;;;;;4956027;28;20105;-73
2021/11/30 05:42:45;;;;;;;0.00;0.00;;;5.90;63.30;;;;;;4954481;29;20031;-73
2021/11/30 05:45:11;;;;;;;0.00;0.00;;;5.90;62.70;;;;;;4958450;28;20023;-73
2021/11/30 05:47:37;;;;;;;0.00;0.00;;;6.00;62.60;;;;;;4963464;28;20078;-73
2021/11/30 05:50:05;;;;;;;0.00;0.00;;;6.00;62.00;;;;;;4964489;28;20022;-73
2021/11/30 05:52:30;;;;;;;0.00;0.00;;;6.00;61.90;;;;;;4963377;28;20066;-73
2021/11/30 05:54:56;;;;;;;0.00;0.00;;;6.00;62.30;;;;;;4963890;28;20448;-73
2021/11/30 05:57:23;;;;;;;0.00;0.00;;;6.00;62.00;;;;;;4965946;28;20033;-74
2021/11/30 05:59:50;;;;;;;0.00;0.00;;;6.00;62.30;;;;;;4964706;28;20037;-73
2021/11/30 06:02:17;;;;;;;0.00;0.00;;;6.00;62.20;;;;;;4964175;28;20091;-73
2021/11/30 06:04:43;;;;;;;0.00;0.00;;;6.00;62.10;;;;;;4963700;28;20452;-73
2021/11/30 06:07:09;;;;;;;0.00;0.00;;;6.10;62.30;;;;;;4955797;28;20122;-72
2021/11/30 06:09:35;;;;;;;0.00;0.00;;;6.10;61.50;;;;;;4954906;28;20118;-72
2021/11/30 06:12:01;;;;;;;0.00;0.00;;;6.10;61.60;;;;;;4960748;28;20435;-74
2021/11/30 06:14:27;;;;;;;0.00;0.00;;;6.10;61.70;;;;;;4963396;28;20038;-72
2021/11/30 06:16:53;;;;;;;0.00;0.00;;;6.10;61.90;;;;;;4956481;28;20035;-72
2021/11/30 06:19:20;;;;;;;0.00;0.00;;;6.10;62.10;;;;;;4954709;29;20470;-73
2021/11/30 06:21:47;;;;;;;0.00;0.00;;;6.10;62.10;;;;;;4955079;28;20027;-71
2021/11/30 06:24:13;;;;;;;0.00;0.00;;;6.10;62.40;;;;;;4955012;28;20034;-73
2021/11/30 06:26:39;;;;;;;0.00;0.00;;;6.20;62.30;;;;;;4954691;28;20042;-72
2021/11/30 06:29:07;;;;;;;0.00;0.00;;;6.20;62.10;;;;;;4955034;28;20027;-73
2021/11/30 06:31:33;;;;;;;0.00;0.00;;;6.20;61.90;;;;;;4954909;28;20035;-72
2021/11/30 06:33:59;;;;;;;0.00;0.00;;;6.20;62.00;;;;;;4954675;29;20031;-72
2021/11/30 06:36:25;;;;;;;0.00;0.00;;;6.20;61.10;;;;;;4953443;29;20038;-71
2021/11/30 06:38:50;;;;;;;0.00;0.00;;;6.10;61.20;;;;;;4960737;28;20365;-73
2021/11/30 06:41:17;;;;;;;0.00;0.00;;;6.10;61.20;;;;;;4974286;28;20102;-72
2021/11/30 06:43:44;;;;;;;0.00;0.00;;;6.10;61.50;;;;;;4973833;28;20126;-73
2021/11/30 06:46:09;;;;;;;0.00;0.00;;;6.10;61.70;;;;;;4974139;28;20379;-72
2021/11/30 06:48:35;;;;;;;0.00;0.00;;;6.10;61.10;;;;;;4974173;28;20027;-73
2021/11/30 06:51:01;;;;;;;0.00;0.00;;;6.10;61.20;;;;;;4974693;28;20027;-73
2021/11/30 06:53:32;;;;;;;0.00;0.00;;;6.10;61.20;;;;;;4962587;28;20031;-72
2021/11/30 06:55:58;;;;;;;0.00;0.00;;;6.10;61.40;;;;;;4957142;28;20062;-72
2021/11/30 06:58:24;;;;;;;0.00;0.00;;;6.10;61.30;;;;;;4965081;28;20031;-72
2021/11/30 07:00:52;;;;;;;0.00;0.00;;;6.10;61.20;;;;;;4977669;28;20500;-72
2021/11/30 07:03:20;;;;;;;0.00;0.00;;;6.10;61.40;;;;;;4977478;28;20113;-72
2021/11/30 07:05:50;;;;;;;0.00;0.00;;;6.10;61.40;;;;;;4977442;28;20396;-72
2021/11/30 07:08:19;;;;;;;0.00;0.00;;;6.10;61.50;;;;;;4977621;28;20035;-72
2021/11/30 07:10:50;;;;;;;0.00;0.00;;;6.10;61.80;;;;;;4968417;28;20023;-73
2021/11/30 07:15:54;;;;;;;0.00;0.00;;;6.10;61.70;;;;;;4966312;28;20035;-72
2021/11/30 07:18:20;;;;;;;0.00;0.00;;;6.10;61.80;;;;;;4956959;28;20457;-72
2021/11/30 07:20:46;;;;;;;0.00;0.00;;;6.20;61.40;;;;;;4957126;28;20034;-72
2021/11/30 07:23:12;;;;;;;0.00;0.00;;;6.20;61.40;;;;;;4958351;28;20031;-73
2021/11/30 07:25:39;;;;;;;0.00;0.00;;;6.20;61.60;;;;;;4957256;29;20158;-73
2021/11/30 07:28:05;;;;;;;0.00;0.00;;;6.20;61.30;;;;;;4961595;28;20022;-73
2021/11/30 07:30:31;;;;;;;0.00;0.00;;;6.10;61.20;;;;;;4976275;28;20392;-72
2021/11/30 07:32:56;;;;;;;0.00;0.00;;;6.20;61.30;;;;;;4969022;28;20035;-73
2021/11/30 07:35:23;;;;;;;0.00;0.00;;;6.30;61.60;;;;;;4957860;29;20035;-73
2021/11/30 07:37:50;;;;;;;0.00;0.00;;;6.40;61.40;;;;;;4957769;28;20031;-73
2021/11/30 07:40:16;;;;;;;0.00;0.00;;;6.50;61.40;;;;;;4957599;29;20033;-72
2021/11/30 07:42:43;;;;;;;0.00;0.00;;;6.60;60.90;;;;;;4957996;28;20028;-72
2021/11/30 07:45:10;;;;;;;0.00;0.00;;;6.90;61.90;;;;;;4958323;28;20023;-72
2021/11/30 07:47:36;;;;;;;0.00;0.00;;;7.50;61.60;;;;;;4964500;28;20035;-72
2021/11/30 07:50:03;;;;;;;0.00;0.00;;;8.10;60.80;;;;;;4967884;28;20041;-72
2021/11/30 07:52:31;;;;;;;0.00;0.00;;;8.60;59.00;;;;;;4966540;28;20058;-73
2021/11/30 07:55:03;;;;;;;0.00;0.00;;;9.20;58.20;;;;;;4965315;28;20050;-72
2021/11/30 07:57:29;;;;;;;0.00;0.00;;;9.80;57.80;;;;;;4966848;28;20027;-73
2021/11/30 07:59:55;;;;;;;0.00;0.00;;;10.40;56.80;;;;;;4960768;28;20040;-71
2021/11/30 08:02:21;;;;;;;0.00;0.00;;;10.90;55.20;;;;;;4957276;29;20082;-73
2021/11/30 08:04:49;;;;;;;0.00;0.00;;;10.90;53.50;;;;;;4959590;28;20114;-72
2021/11/30 08:07:16;;;;;;;0.00;0.00;;;10.50;52.30;;;;;;4965279;28;20038;-74
2021/11/30 08:09:49;;;;;;;0.00;0.00;;;10.00;52.60;;;;;;4964021;28;20031;-74
2021/11/30 08:12:16;;;;;;;0.00;0.00;;;9.60;53.10;;;;;;4964804;28;20020;-73
2021/11/30 08:14:41;;;;;;;0.00;0.00;;;9.30;53.90;;;;;;4964615;28;20030;-74
2021/11/30 08:17:13;;;;;;;0.00;0.00;;;9.40;54.60;;;;;;4966318;28;20039;-72
2021/11/30 08:19:40;;;;;;;0.00;0.00;;;9.40;53.80;;;;;;4964821;28;20023;-73
2021/11/30 08:22:06;;;;;;;0.00;0.00;;;9.30;53.60;;;;;;4963818;28;20031;-73
2021/11/30 08:24:32;;;;;;;0.00;0.00;;;9.10;53.40;;;;;;4966104;28;20027;-73
2021/11/30 08:26:57;;;;;;;0.00;0.00;;;8.90;53.60;;;;;;4963196;28;20031;-71
2021/11/30 08:29:23;;;;;;;0.00;0.00;;;8.80;54.20;;;;;;4965561;28;20062;-71
2021/11/30 08:31:49;;;;;;;0.00;0.00;;;9.10;54.60;;;;;;4965726;28;20483;-73
2021/11/30 08:34:15;;;;;;;0.00;0.00;;;10.00;53.30;;;;;;4965958;28;20027;-73
2021/11/30 08:36:40;;;;;;;0.00;0.00;;;10.70;52.20;;;;;;4965110;28;20027;-74
2021/11/30 08:39:06;;;;;;;0.00;0.00;;;11.30;50.60;;;;;;4964928;28;20032;-73
2021/11/30 08:41:32;;;;;;;0.00;0.00;;;11.90;50.20;;;;;;4970558;28;20105;-71
2021/11/30 08:43:58;;;;;;;0.00;0.00;;;12.30;48.70;;;;;;4966237;28;20027;-74
2021/11/30 08:46:23;;;;;;;0.00;0.00;;;12.60;48.50;;;;;;4963803;28;20151;-72
2021/11/30 08:48:49;;;;;;;0.00;0.00;;;13.20;47.20;;;;;;4965211;28;20528;-73
2021/11/30 08:51:15;;;;;;;0.00;0.00;;;13.50;46.30;;;;;;4964276;28;20457;-73
2021/11/30 08:53:40;;;;;;;0.00;0.00;;;13.70;46.00;;;;;;4963978;28;20043;-73
2021/11/30 08:56:07;;;;;;;0.00;0.00;;;13.50;45.00;;;;;;4965910;28;20134;-74
2021/11/30 08:58:34;;;;;;;0.00;0.00;;;12.90;44.70;;;;;;4965394;28;20102;-73
2021/11/30 09:01:01;;;;;;;0.00;0.00;;;12.70;45.10;;;;;;4965338;28;20020;-74
2021/11/30 09:03:27;;;;;;;0.00;0.00;;;13.00;45.90;;;;;;4965406;28;20062;-74
2021/11/30 09:05:53;;;;;;;0.00;0.00;;;13.80;45.50;;;;;;4963320;28;20027;-74
2021/11/30 09:08:19;;;;;;;0.00;0.00;;;14.40;44.80;;;;;;4964274;28;20078;-73
2021/11/30 09:10:45;;;;;;;0.00;0.00;;;15.00;43.80;;;;;;4962543;28;20058;-73
2021/11/30 09:13:11;;;;;;;0.00;0.00;;;15.20;42.70;;;;;;4962282;28;20253;-73
2021/11/30 09:15:38;;;;;;;0.00;0.00;;;15.20;41.50;;;;;;4963505;28;20560;-75
2021/11/30 09:18:04;;;;;;;0.00;0.00;;;14.70;41.70;;;;;;4963569;28;20102;-73
2021/11/30 09:20:31;;;;;;;0.00;0.00;;;14.00;42.10;;;;;;4964316;28;20170;-74
2021/11/30 09:22:57;;;;;;;0.00;0.00;;;13.50;42.30;;;;;;4964992;28;20484;-72
2021/11/30 09:25:23;;;;;;;0.00;0.00;;;13.00;42.80;;;;;;4965655;28;20026;-72
2021/11/30 09:27:50;;;;;;;0.00;0.00;;;12.50;43.20;;;;;;4963964;28;20046;-73
2021/11/30 09:30:17;;;;;;;0.00;0.00;;;12.00;43.60;;;;;;4971832;28;20473;-73
2021/11/30 09:32:44;;;;;;;0.00;0.00;;;11.50;44.40;;;;;;4974774;28;20436;-72
2021/11/30 09:35:14;;;;;;;0.00;0.00;;;11.00;44.80;;;;;;4973433;28;20081;-73
2021/11/30 09:37:41;;;;;;;0.00;0.00;;;10.60;45.60;;;;;;4975064;28;20027;-72
2021/11/30 09:40:10;;;;;;;0.00;0.00;;;10.30;46.30;;;;;;4974972;28;20054;-73
2021/11/30 09:42:35;;;;;;;0.00;0.00;;;9.90;46.80;;;;;;4974754;28;20473;-74
2021/11/30 09:45:04;;;;;;;0.00;0.00;;;9.60;47.40;;;;;;4975222;28;20085;-72
2021/11/30 09:47:31;;;;;;;0.00;0.00;;;9.40;48.10;;;;;;4974648;28;20536;-73
2021/11/30 09:49:57;;;;;;;0.00;0.00;;;9.20;47.90;;;;;;4972178;28;20468;-75
2021/11/30 09:52:23;;;;;;;0.00;0.00;;;9.10;48.90;;;;;;4964370;28;20027;-74
2021/11/30 09:54:49;;;;;;;0.00;0.00;;;8.90;48.60;;;;;;4964887;28;20061;-73
2021/11/30 09:57:16;;;;;;;0.00;0.00;;;8.70;49.20;;;;;;4969108;28;20139;-72
2021/11/30 09:59:46;;;;;;;0.00;0.00;;;8.60;49.70;;;;;;4954016;28;20122;-75
2021/11/30 10:02:13;;;;;;;0.00;0.00;;;8.40;50.10;;;;;;4955806;29;20114;-74
2021/11/30 10:04:40;;;;;;;0.00;0.00;;;8.30;50.50;;;;;;4955276;28;20094;-74
2021/11/30 10:07:05;;;;;;;0.00;0.00;;;8.20;50.60;;;;;;4971349;28;20053;-73
2021/11/30 10:09:32;;;;;;;0.00;0.00;;;8.00;50.90;;;;;;4974868;28;20461;-74
2021/11/30 10:12:06;;;;;;;0.00;0.00;;;7.80;51.40;;;;;;4971322;28;20393;-73
2021/11/30 10:14:38;;;;;;;0.00;0.00;;;7.80;52.00;;;;;;4965046;28;20054;-72
2021/11/30 10:17:23;;;;;;;0.00;0.00;;;7.70;52.20;;;;;;4964508;28;20464;-74
2021/11/30 10:20:04;;;;;;;0.00;0.00;;;7.70;52.60;;;;;;4963830;28;20031;-74
2021/11/30 10:22:52;;;;;;;0.00;0.00;;;7.80;52.50;;;;;;4965249;28;20045;-73
2021/11/30 10:25:35;;;;;;;0.00;0.00;;;7.80;52.40;;;;;;4961149;28;20031;-74
2021/11/30 10:28:14;;;;;;;0.00;0.00;;;7.70;52.40;;;;;;4950734;28;20046;-75
2021/11/30 10:30:42;;;;;;;0.00;0.00;;;7.70;52.60;;;;;;4964982;28;20369;-73
2021/11/30 10:33:22;;;;;;;0.10;0.00;;;7.70;52.70;;;;;;4976671;28;20023;-73
2021/11/30 10:35:57;;;;;;;0.00;0.00;;;7.80;52.60;;;;;;4958726;28;20027;-74
2021/11/30 10:38:43;;;;;;;;;;;7.80;52.70;;;;;;4959431;28;20034;-74
2021/11/30 10:41:20;;;;;;;0.00;0.00;;;7.90;52.90;;;;;;4972784;28;20005;-74
2021/11/30 10:43:55;;;;;;;0.00;0.00;;;7.90;52.40;;;;;;4977187;28;20061;-73
2021/11/30 10:46:25;;;;;;;0.00;0.00;;;7.70;52.60;;;;;;4971743;28;20050;-76
2021/11/30 10:48:51;;;;;;;0.00;0.00;;;7.70;52.80;;;;;;4975060;28;20034;-74
2021/11/30 10:51:17;;;;;;;0.00;0.00;;;7.70;52.40;;;;;;4978452;28;20042;-75
2021/11/30 10:53:46;;;;;;;0.00;0.00;;;7.60;52.20;;;;;;4978013;28;20499;-72
2021/11/30 10:56:12;;;;;;;0.00;0.00;;;7.60;52.40;;;;;;4973006;28;20047;-74
2021/11/30 10:58:41;;;;;;;0.00;0.00;;;7.50;52.60;;;;;;4959172;28;20031;-72
2021/11/30 11:01:12;;;;;;;0.00;0.00;;;7.40;52.80;;;;;;4957471;29;20031;-74
2021/11/30 11:03:37;;;;;;;0.00;0.00;;;7.40;53.10;;;;;;4958048;28;20031;-74
2021/11/30 11:08:49;;;;;;;0.00;0.00;;;7.40;53.30;;;;;;4958700;29;20122;-74
2021/11/30 11:11:17;;;;;;;0.00;0.00;;;7.40;53.30;;;;;;4958063;29;20094;-72
2021/11/30 11:13:44;;;;;;;0.00;0.00;;;7.40;53.00;;;;;;4958357;29;20114;-73
2021/11/30 11:16:25;;;;;;;0.00;0.00;;;7.30;52.50;;;;;;4957366;28;20118;-74
2021/11/30 11:18:53;;;;;;;0.00;0.00;;;7.20;52.50;;;;;;4968916;28;20058;-74
2021/11/30 11:21:29;;;;;;;0.00;0.00;;;7.10;52.90;;;;;;4977574;28;20034;-74
2021/11/30 11:24:15;;;;;;;0.00;0.00;;;7.10;53.30;;;;;;4977469;28;20050;-73
2021/11/30 11:26:52;;;;;;;0.05;0.00;;;7.10;53.50;;;;;;4977100;28;20026;-73
2021/11/30 11:29:20;;;;;;;0.00;0.00;;;7.10;53.60;;;;;;4976972;28;20392;-74
2021/11/30 11:31:48;;;;;;;0.00;0.00;;;7.10;54.00;;;;;;4976156;28;20081;-72
2021/11/30 11:34:17;;;;;;;0.00;0.00;;;7.10;54.10;;;;;;4977104;28;20381;-74
2021/11/30 11:36:48;;;;;;;0.00;0.00;;;7.10;54.30;;;;;;4977128;28;20033;-74
2021/11/30 11:39:17;;;;;;;0.00;0.00;;;7.20;54.30;;;;;;4977380;28;20033;-73
2021/11/30 11:41:45;;;;;;;0.00;0.00;;;7.30;53.80;;;;;;4975501;28;20039;-72
2021/11/30 11:44:11;;;;;;;0.00;0.00;;;7.20;53.60;;;;;;4966429;28;20066;-73
2021/11/30 11:46:38;;;;;;;0.00;0.00;;;7.20;53.50;;;;;;4962765;28;20581;-72
2021/11/30 11:49:07;;;;;;;0.00;0.00;;;7.20;53.90;;;;;;4965484;28;20062;-73
2021/11/30 11:51:48;;;;;;;0.00;0.00;;;7.20;53.70;;;;;;4967757;28;20023;-74
2021/11/30 11:54:29;;;;;;;0.00;0.00;;;7.20;53.60;;;;;;4966332;28;20026;-73
2021/11/30 11:57:10;;;;;;;0.00;0.00;;;7.40;53.30;;;;;;4966546;28;20354;-73
2021/11/30 11:59:44;;;;;;;0.00;0.00;;;7.50;53.40;;;;;;4972761;28;20381;-73
2021/11/30 12:02:26;;;;;;;0.00;0.00;;;7.50;53.40;;;;;;4968252;28;20040;-74
2021/11/30 12:05:02;;;;;;;0.00;0.00;;;7.50;53.20;;;;;;4965194;28;20041;-72
2021/11/30 12:07:58;;;;;;;0.00;0.00;;;7.60;53.00;;;;;;4964886;28;20393;-73
2021/11/30 12:10:32;;;;;;;0.00;0.00;;;7.60;53.00;;;;;;4967192;28;20027;-73
2021/11/30 12:13:00;;;;;;;0.00;0.00;;;7.70;53.20;;;;;;4959681;28;20080;-73
2021/11/30 12:15:31;;;;;;;0.00;0.00;;;7.80;52.70;;;;;;4957090;29;20392;-72
2021/11/30 12:18:27;;;;;;;0.00;0.00;;;8.00;51.70;;;;;;4956929;28;20035;-72
2021/11/30 12:21:09;;;;;;;0.00;0.00;;;8.10;51.30;;;;;;4956334;29;20040;-74
2021/11/30 12:23:36;;;;;;;0.00;0.00;;;8.00;51.40;;;;;;4957408;28;20015;-75
2021/11/30 12:26:02;;;;;;;0.00;0.00;;;7.90;51.30;;;;;;4966104;28;20074;-74
2021/11/30 12:28:37;;;;;;;0.00;0.00;;;7.70;51.00;;;;;;4973178;28;20429;-73
2021/11/30 12:31:04;;;;;;;0.00;0.00;;;7.60;51.20;;;;;;4976144;28;20058;-73
2021/11/30 12:33:33;;;;;;;0.00;0.00;;;7.50;51.20;;;;;;4976418;28;20491;-71
2021/11/30 12:36:08;;;;;;;0.00;0.00;;;7.40;51.40;;;;;;4976039;28;20027;-72
2021/11/30 12:38:53;;;;;;;0.00;0.00;;;7.40;50.80;;;;;;4974628;28;20070;-72
2021/11/30 12:41:45;;;;;;;0.00;0.00;;;7.30;51.00;;;;;;4976470;28;20372;-74
2021/11/30 12:44:22;;;;;;;0.00;0.00;;;7.30;50.80;;;;;;4976648;28;20030;-74
2021/11/30 12:46:57;;;;;;;0.00;0.00;;;7.20;51.10;;;;;;4975622;28;20476;-74
2021/11/30 12:49:29;;;;;;;0.00;0.00;;;7.10;51.40;;;;;;4976197;28;20089;-74
2021/11/30 12:52:26;;;;;;;0.00;0.00;;;7.10;51.20;;;;;;4974891;28;20433;-75
2021/11/30 12:55:14;;;;;;;0.00;0.00;;;7.00;51.00;;;;;;4973852;28;20508;-75
2021/11/30 12:57:44;;;;;;;0.00;0.00;;;7.00;51.00;;;;;;4973943;28;20031;-74
2021/11/30 13:00:19;;;;;;;0.00;0.00;;;6.90;51.10;;;;;;4975129;28;20085;-73
2021/11/30 13:02:47;;;;;;;0.00;0.00;;;6.80;51.40;;;;;;4973457;28;20091;-74
2021/11/30 13:05:16;;;;;;;0.00;0.00;;;6.80;51.60;;;;;;4974781;28;20027;-74
2021/11/30 13:07:48;;;;;;;0.00;0.00;;;6.80;51.70;;;;;;4973347;28;20027;-75
2021/11/30 13:10:44;;;;;;;0.00;0.00;;;6.80;51.80;;;;;;4964484;28;20020;-74
2021/11/30 13:13:28;;;;;;;0.00;0.00;;;6.90;52.20;;;;;;4966581;28;20362;-74
2021/11/30 13:15:59;;;;;;;0.00;0.00;;;7.00;52.50;;;;;;4966308;28;20161;-75
2021/11/30 13:18:29;;;;;;;0.00;0.00;;;7.10;52.60;;;;;;4963969;28;20022;-75